PWSweather.com
Personal Weather Stations
Station Observations
PICKERING
North Yorkshire, PickeringGB

North YorkshirePickeringGB

Lat: 54.2494, Lon: -0.7725

Elevation: 192

Station Type: Oregon Scientific WMR100

High Low Average
Temperature 47.3°F8.5°F 36.0°F2.2°F 42.3°F5.7°F
Dew Point 42.8°F6.0°F 30.2°F-1.0°F 37.1°F2.8°F
Winds 7.4 mph -11.9 mph - 1.7 mph 2.7 mph 4.0 mph 6.4 mph
Wind Gusts 13.0 mph20.9 mph 2.7 mph4.3 mph 6.1 mph9.8 mph
Humidity 86% 78% 81%
Pressure 29.92 in1013.20 in 29.59 in1002.00 in -
Precipitation 1.08 in27.40 in - -
Hour Temp Dew Point Humidity Winds Wind Gusts Pressure Precip Precip Rate Daily Precip Total
12:00 AM 47.3°F8.5°C 41.0°F5.0°C 78% 3.1 mph N5.0 kmh N 5.6 mph9.0 kmh 29.62 in1003.0 mb 0.00 in0.0 mm 0.00 in0.0 mm 0.00 in0.0 mm
12:10 AM 47.1°F8.4°C 41.0°F5.0°C 78% 2.6 mph N4.2 kmh N 4.7 mph7.6 kmh 29.62 in1003.0 mb 0.00 in0.0 mm 0.00 in0.0 mm 0.00 in0.0 mm
12:20 AM 46.8°F8.2°C 41.0°F5.0°C 78% 1.7 mph N2.7 kmh N 3.6 mph5.8 kmh 29.62 in1003.0 mb 0.00 in0.0 mm 0.00 in0.0 mm 0.00 in0.0 mm
12:30 AM 46.8°F8.2°C 41.0°F5.0°C 78% 2.9 mph N4.7 kmh N 4.3 mph6.9 kmh 29.62 in1003.0 mb 0.00 in0.0 mm 0.00 in0.0 mm 0.00 in0.0 mm
12:40 AM 46.8°F8.2°C 41.0°F5.0°C 78% 2.2 mph N3.5 kmh N 3.4 mph5.5 kmh 29.62 in1003.0 mb 0.00 in0.0 mm 0.00 in0.0 mm 0.00 in0.0 mm
12:50 AM 46.0°F7.8°C 39.2°F4.0°C 78% 2.3 mph N3.7 kmh N 3.6 mph5.8 kmh 29.62 in1003.0 mb 0.00 in0.0 mm 0.00 in0.0 mm 0.00 in0.0 mm
01:00 AM 45.9°F7.7°C 39.2°F4.0°C 78% 2.6 mph N4.2 kmh N 4.7 mph7.6 kmh 29.62 in1003.0 mb 0.00 in0.0 mm 0.00 in0.0 mm 0.00 in0.0 mm
01:10 AM 45.5°F7.5°C 39.2°F4.0°C 79% 2.9 mph N4.7 kmh N 4.7 mph7.6 kmh 29.62 in1003.0 mb 0.00 in0.0 mm 0.00 in0.0 mm 0.00 in0.0 mm
01:30 AM 45.7°F7.6°C 39.2°F4.0°C 79% 2.8 mph N4.5 kmh N 4.0 mph6.4 kmh 29.62 in1003.0 mb 0.00 in0.0 mm 0.00 in0.0 mm 0.00 in0.0 mm
01:40 AM 45.5°F7.5°C 39.2°F4.0°C 79% 3.1 mph N5.0 kmh N 4.9 mph7.9 kmh 29.62 in1003.0 mb 0.00 in0.0 mm 0.00 in0.0 mm 0.00 in0.0 mm
01:50 AM 45.3°F7.4°C 39.2°F4.0°C 79% 3.5 mph N5.6 kmh N 5.4 mph8.7 kmh 29.62 in1003.0 mb 0.00 in0.0 mm 0.00 in0.0 mm 0.00 in0.0 mm
02:00 AM 45.5°F7.5°C 39.2°F4.0°C 79% 4.7 mph N7.6 kmh N 6.5 mph10.5 kmh 29.62 in1003.0 mb 0.00 in0.0 mm 0.00 in0.0 mm 0.00 in0.0 mm
02:10 AM 45.5°F7.5°C 39.2°F4.0°C 79% 4.8 mph N7.7 kmh N 6.5 mph10.5 kmh 29.62 in1003.0 mb 0.00 in0.0 mm 0.00 in0.0 mm 0.00 in0.0 mm
02:20 AM 45.3°F7.4°C 39.2°F4.0°C 79% 5.1 mph N8.2 kmh N 6.5 mph10.5 kmh 29.62 in1003.0 mb 0.00 in0.0 mm 0.00 in0.0 mm 0.00 in0.0 mm
02:30 AM 45.1°F7.3°C 39.2°F4.0°C 79% 5.0 mph N8.0 kmh N 6.5 mph10.5 kmh 29.62 in1003.0 mb 0.00 in0.0 mm 0.00 in0.0 mm 0.00 in0.0 mm
02:40 AM 44.8°F7.1°C 39.2°F4.0°C 79% 4.3 mph N6.9 kmh N 7.4 mph11.9 kmh 29.62 in1003.0 mb 0.00 in0.0 mm 0.00 in0.0 mm 0.00 in0.0 mm
02:50 AM 44.4°F6.9°C 39.2°F4.0°C 79% 4.4 mph N7.1 kmh N 7.4 mph11.9 kmh 29.62 in1003.0 mb 0.00 in0.0 mm 0.00 in0.0 mm 0.00 in0.0 mm
03:00 AM 44.4°F6.9°C 39.2°F4.0°C 79% 4.9 mph N7.9 kmh N 6.0 mph9.7 kmh 29.62 in1003.0 mb 0.00 in0.0 mm 0.00 in0.0 mm 0.00 in0.0 mm
03:10 AM 44.4°F6.9°C 39.2°F4.0°C 79% 4.4 mph N7.1 kmh N 6.0 mph9.7 kmh 29.62 in1003.0 mb 0.00 in0.0 mm 0.00 in0.0 mm 0.00 in0.0 mm
03:20 AM 44.2°F6.8°C 37.4°F3.0°C 79% 4.7 mph N7.6 kmh N 12.8 mph20.6 kmh 29.62 in1003.0 mb 0.00 in0.0 mm 0.00 in0.0 mm 0.00 in0.0 mm
03:30 AM 43.9°F6.6°C 37.4°F3.0°C 79% 4.3 mph N6.9 kmh N 6.5 mph10.5 kmh 29.62 in1003.0 mb 0.00 in0.0 mm 0.00 in0.0 mm 0.00 in0.0 mm
03:40 AM 44.1°F6.7°C 37.4°F3.0°C 79% 5.1 mph N8.2 kmh N 6.5 mph10.5 kmh 29.62 in1003.0 mb 0.00 in0.0 mm 0.00 in0.0 mm 0.00 in0.0 mm
03:50 AM 43.9°F6.6°C 37.4°F3.0°C 79% 5.4 mph N8.7 kmh N 8.1 mph13.0 kmh 29.62 in1003.0 mb 0.00 in0.0 mm 0.00 in0.0 mm 0.00 in0.0 mm
04:00 AM 43.9°F6.6°C 37.4°F3.0°C 79% 4.1 mph N6.6 kmh N 5.8 mph9.3 kmh 29.62 in1003.0 mb 0.00 in0.0 mm 0.00 in0.0 mm 0.00 in0.0 mm
04:10 AM 44.1°F6.7°C 37.4°F3.0°C 79% 4.9 mph N7.9 kmh N 7.2 mph11.6 kmh 29.62 in1003.0 mb 0.00 in0.0 mm 0.00 in0.0 mm 0.00 in0.0 mm
04:20 AM 44.4°F6.9°C 39.2°F4.0°C 79% 4.9 mph N7.9 kmh N 7.6 mph12.2 kmh 29.62 in1003.0 mb 0.00 in0.0 mm 0.00 in0.0 mm 0.00 in0.0 mm
04:30 AM 44.6°F7.0°C 39.2°F4.0°C 79% 4.0 mph N6.4 kmh N 5.4 mph8.7 kmh 29.62 in1003.0 mb 0.00 in0.0 mm 0.00 in0.0 mm 0.00 in0.0 mm
04:40 AM 44.6°F7.0°C 39.2°F4.0°C 79% 3.6 mph N5.8 kmh N 5.6 mph9.0 kmh 29.62 in1003.0 mb 0.00 in0.0 mm 0.00 in0.0 mm 0.00 in0.0 mm
04:50 AM 44.8°F7.1°C 39.2°F4.0°C 79% 4.9 mph N7.9 kmh N 8.7 mph14.0 kmh 29.59 in1002.0 mb 0.00 in0.0 mm 0.00 in0.0 mm 0.00 in0.0 mm
05:00 AM 44.6°F7.0°C 39.2°F4.0°C 80% 5.0 mph N8.0 kmh N 7.6 mph12.2 kmh 29.59 in1002.0 mb 0.00 in0.0 mm 0.00 in0.0 mm 0.00 in0.0 mm
05:10 AM 44.4°F6.9°C 39.2°F4.0°C 80% 3.7 mph N6.0 kmh N 4.7 mph7.6 kmh 29.59 in1002.0 mb 0.00 in0.0 mm 0.00 in0.0 mm 0.00 in0.0 mm
05:20 AM 44.4°F6.9°C 39.2°F4.0°C 81% 3.1 mph N5.0 kmh N 3.8 mph6.1 kmh 29.59 in1002.0 mb 0.00 in0.0 mm 0.00 in0.0 mm 0.00 in0.0 mm
05:30 AM 44.4°F6.9°C 39.2°F4.0°C 81% 3.0 mph N4.8 kmh N 4.0 mph6.4 kmh 29.59 in1002.0 mb 0.00 in0.0 mm 0.00 in0.0 mm 0.00 in0.0 mm
05:40 AM 44.6°F7.0°C 39.2°F4.0°C 81% 3.0 mph N4.8 kmh N 3.8 mph6.1 kmh 29.59 in1002.0 mb 0.00 in0.0 mm 0.00 in0.0 mm 0.00 in0.0 mm
05:50 AM 44.6°F7.0°C 39.2°F4.0°C 82% 3.8 mph N6.1 kmh N 7.2 mph11.6 kmh 29.59 in1002.0 mb 0.00 in0.0 mm 0.00 in0.0 mm 0.00 in0.0 mm
06:00 AM 44.6°F7.0°C 39.2°F4.0°C 82% 4.0 mph N6.4 kmh N 8.5 mph13.7 kmh 29.59 in1002.0 mb 0.00 in0.0 mm 0.00 in0.0 mm 0.00 in0.0 mm
06:10 AM 44.8°F7.1°C 39.2°F4.0°C 82% 5.6 mph N9.0 kmh N 8.7 mph14.0 kmh 29.59 in1002.0 mb 0.00 in0.0 mm 0.00 in0.0 mm 0.00 in0.0 mm
06:20 AM 44.8°F7.1°C 39.2°F4.0°C 82% 5.5 mph N8.9 kmh N 8.5 mph13.7 kmh 29.59 in1002.0 mb 0.00 in0.0 mm 0.00 in0.0 mm 0.00 in0.0 mm
06:30 AM 44.6°F7.0°C 39.2°F4.0°C 82% 5.2 mph N8.4 kmh N 8.5 mph13.7 kmh 29.59 in1002.0 mb 0.00 in0.0 mm 0.00 in0.0 mm 0.00 in0.0 mm
06:50 AM 44.4°F6.9°C 39.2°F4.0°C 83% 5.5 mph N8.9 kmh N 7.2 mph11.6 kmh 29.59 in1002.0 mb 0.00 in0.0 mm 0.00 in0.0 mm 0.00 in0.0 mm
07:00 AM 44.6°F7.0°C 39.2°F4.0°C 83% 5.8 mph N9.3 kmh N 9.6 mph15.4 kmh 29.59 in1002.0 mb 0.00 in0.0 mm 0.00 in0.0 mm 0.00 in0.0 mm
07:10 AM 44.4°F6.9°C 39.2°F4.0°C 83% 5.1 mph N8.2 kmh N 8.7 mph14.0 kmh 29.59 in1002.0 mb 0.00 in0.0 mm 0.00 in0.0 mm 0.00 in0.0 mm
07:20 AM 44.4°F6.9°C 39.2°F4.0°C 83% 4.8 mph N7.7 kmh N 6.0 mph9.7 kmh 29.59 in1002.0 mb 0.00 in0.0 mm 0.00 in0.0 mm 0.00 in0.0 mm
07:30 AM 44.2°F6.8°C 39.2°F4.0°C 83% 4.1 mph N6.6 kmh N 5.6 mph9.0 kmh 29.59 in1002.0 mb 0.00 in0.0 mm 0.00 in0.0 mm 0.00 in0.0 mm
07:40 AM 44.2°F6.8°C 39.2°F4.0°C 83% 3.7 mph N6.0 kmh N 5.4 mph8.7 kmh 29.59 in1002.0 mb 0.00 in0.0 mm 0.00 in0.0 mm 0.00 in0.0 mm
07:50 AM 44.1°F6.7°C 39.2°F4.0°C 84% 2.1 mph N3.4 kmh N 3.6 mph5.8 kmh 29.59 in1002.0 mb 0.00 in0.0 mm 0.00 in0.0 mm 0.00 in0.0 mm
08:00 AM 43.9°F6.6°C 39.2°F4.0°C 84% 3.0 mph N4.8 kmh N 4.0 mph6.4 kmh 29.59 in1002.0 mb 0.00 in0.0 mm 0.00 in0.0 mm 0.00 in0.0 mm
08:10 AM 44.4°F6.9°C 41.0°F5.0°C 84% 3.0 mph N4.8 kmh N 3.8 mph6.1 kmh 29.59 in1002.0 mb 0.00 in0.0 mm 0.00 in0.0 mm 0.00 in0.0 mm
08:20 AM 44.6°F7.0°C 41.0°F5.0°C 84% 3.3 mph N5.3 kmh N 4.3 mph6.9 kmh 29.59 in1002.0 mb 0.00 in0.0 mm 0.00 in0.0 mm 0.00 in0.0 mm
08:30 AM 44.8°F7.1°C 41.0°F5.0°C 84% 2.2 mph N3.5 kmh N 3.8 mph6.1 kmh 29.59 in1002.0 mb 0.00 in0.0 mm 0.00 in0.0 mm 0.00 in0.0 mm
08:40 AM 45.0°F7.2°C 41.0°F5.0°C 84% 3.6 mph N5.8 kmh N 8.1 mph13.0 kmh 29.59 in1002.0 mb 0.00 in0.0 mm 0.00 in0.0 mm 0.00 in0.0 mm
08:50 AM 45.0°F7.2°C 41.0°F5.0°C 84% 2.7 mph N4.3 kmh N 3.8 mph6.1 kmh 29.59 in1002.0 mb 0.00 in0.0 mm 0.00 in0.0 mm 0.00 in0.0 mm
09:00 AM 45.0°F7.2°C 41.0°F5.0°C 84% 2.5 mph N4.0 kmh N 5.4 mph8.7 kmh 29.59 in1002.0 mb 0.06 in1.5 mm 0.07 in1.8 mm 0.06 in1.5 mm
09:10 AM 45.3°F7.4°C 41.0°F5.0°C 84% 3.0 mph N4.8 kmh N 5.4 mph8.7 kmh 29.59 in1002.0 mb 0.06 in1.5 mm 0.00 in0.0 mm 0.06 in1.5 mm
09:20 AM 45.3°F7.4°C 41.0°F5.0°C 85% 3.7 mph N6.0 kmh N 5.8 mph9.3 kmh 29.59 in1002.0 mb 0.06 in1.5 mm 0.00 in0.0 mm 0.06 in1.5 mm
09:30 AM 45.5°F7.5°C 42.8°F6.0°C 85% 3.4 mph N5.5 kmh N 4.7 mph7.6 kmh 29.59 in1002.0 mb 0.06 in1.5 mm 0.00 in0.0 mm 0.06 in1.5 mm
09:40 AM 45.7°F7.6°C 42.8°F6.0°C 85% 3.0 mph N4.8 kmh N 4.3 mph6.9 kmh 29.59 in1002.0 mb 0.06 in1.5 mm 0.00 in0.0 mm 0.06 in1.5 mm
09:50 AM 46.0°F7.8°C 42.8°F6.0°C 85% 2.8 mph N4.5 kmh N 4.3 mph6.9 kmh 29.59 in1002.0 mb 0.06 in1.5 mm 0.00 in0.0 mm 0.06 in1.5 mm
10:00 AM 45.7°F7.6°C 42.8°F6.0°C 85% 4.2 mph N6.8 kmh N 6.0 mph9.7 kmh 29.59 in1002.0 mb 0.00 in0.0 mm 0.00 in0.0 mm 0.06 in1.5 mm
10:10 AM 45.3°F7.4°C 41.0°F5.0°C 84% 4.7 mph N7.6 kmh N 6.3 mph10.1 kmh 29.59 in1002.0 mb 0.00 in0.0 mm 0.00 in0.0 mm 0.06 in1.5 mm
10:20 AM 45.1°F7.3°C 41.0°F5.0°C 85% 3.7 mph N6.0 kmh N 4.7 mph7.6 kmh 29.59 in1002.0 mb 0.00 in0.0 mm 0.00 in0.0 mm 0.06 in1.5 mm
10:30 AM 45.1°F7.3°C 41.0°F5.0°C 85% 1.8 mph N2.9 kmh N 4.0 mph6.4 kmh 29.59 in1002.0 mb 0.00 in0.0 mm 0.00 in0.0 mm 0.06 in1.5 mm
10:40 AM 45.1°F7.3°C 41.0°F5.0°C 85% 2.8 mph N4.5 kmh N 6.5 mph10.5 kmh 29.59 in1002.0 mb 0.00 in0.0 mm 0.00 in0.0 mm 0.06 in1.5 mm
10:50 AM 45.1°F7.3°C 41.0°F5.0°C 85% 1.8 mph N2.9 kmh N 4.3 mph6.9 kmh 29.62 in1003.0 mb 0.00 in0.0 mm 0.00 in0.0 mm 0.06 in1.5 mm
11:00 AM 45.0°F7.2°C 41.0°F5.0°C 85% 2.3 mph N3.7 kmh N 4.3 mph6.9 kmh 29.62 in1003.0 mb 0.00 in0.0 mm 0.00 in0.0 mm 0.06 in1.5 mm
11:10 AM 44.8°F7.1°C 41.0°F5.0°C 85% 2.7 mph N4.3 kmh N 5.8 mph9.3 kmh 29.62 in1003.0 mb 0.00 in0.0 mm 0.00 in0.0 mm 0.06 in1.5 mm
11:20 AM 44.6°F7.0°C 41.0°F5.0°C 85% 2.9 mph N4.7 kmh N 3.4 mph5.5 kmh 29.62 in1003.0 mb 0.06 in1.5 mm 0.36 in9.1 mm 0.11 in2.8 mm
11:30 AM 44.8°F7.1°C 41.0°F5.0°C 86% 2.9 mph N4.7 kmh N 4.9 mph7.9 kmh 29.62 in1003.0 mb 0.13 in3.3 mm 0.42 in10.7 mm 0.18 in4.6 mm
11:40 AM 43.3°F6.3°C 39.2°F4.0°C 85% 4.9 mph N7.9 kmh N 7.8 mph12.6 kmh 29.62 in1003.0 mb 0.13 in3.3 mm 0.00 in0.0 mm 0.18 in4.6 mm
11:50 AM 42.8°F6.0°C 39.2°F4.0°C 84% 6.9 mph N11.1 kmh N 10.3 mph16.6 kmh 29.62 in1003.0 mb 0.13 in3.3 mm 0.00 in0.0 mm 0.18 in4.6 mm
12:00 PM 42.8°F6.0°C 39.2°F4.0°C 84% 4.2 mph N6.8 kmh N 6.5 mph10.5 kmh 29.62 in1003.0 mb 0.13 in3.3 mm 0.00 in0.0 mm 0.18 in4.6 mm
12:10 PM 42.4°F5.8°C 39.2°F4.0°C 84% 5.1 mph N8.2 kmh N 7.8 mph12.6 kmh 29.62 in1003.0 mb 0.07 in1.8 mm 0.00 in0.0 mm 0.18 in4.6 mm
12:20 PM 41.9°F5.5°C 37.4°F3.0°C 83% 5.7 mph N9.2 kmh N 9.8 mph15.8 kmh 29.62 in1003.0 mb 0.07 in1.8 mm 0.00 in0.0 mm 0.18 in4.6 mm
12:30 PM 41.7°F5.4°C 37.4°F3.0°C 83% 5.7 mph N9.2 kmh N 8.5 mph13.7 kmh 29.62 in1003.0 mb 0.00 in0.0 mm 0.00 in0.0 mm 0.18 in4.6 mm
12:40 PM 41.5°F5.3°C 37.4°F3.0°C 83% 7.4 mph N11.9 kmh N 13.0 mph20.9 kmh 29.65 in1004.1 mb 0.00 in0.0 mm 0.00 in0.0 mm 0.18 in4.6 mm
12:50 PM 41.5°F5.3°C 37.4°F3.0°C 83% 5.4 mph N8.7 kmh N 11.9 mph19.2 kmh 29.65 in1004.1 mb 0.00 in0.0 mm 0.00 in0.0 mm 0.18 in4.6 mm
01:00 PM 41.5°F5.3°C 37.4°F3.0°C 83% 4.6 mph N7.4 kmh N 8.7 mph14.0 kmh 29.65 in1004.1 mb 0.00 in0.0 mm 0.00 in0.0 mm 0.18 in4.6 mm
01:10 PM 41.5°F5.3°C 37.4°F3.0°C 82% 3.9 mph N6.3 kmh N 8.7 mph14.0 kmh 29.65 in1004.1 mb 0.00 in0.0 mm 0.00 in0.0 mm 0.18 in4.6 mm
01:20 PM 41.2°F5.1°C 35.6°F2.0°C 81% 4.3 mph N6.9 kmh N 4.3 mph6.9 kmh 29.65 in1004.1 mb 0.00 in0.0 mm 0.00 in0.0 mm 0.18 in4.6 mm
01:30 PM 41.2°F5.1°C 35.6°F2.0°C 80% 4.3 mph N6.9 kmh N 4.3 mph6.9 kmh 29.65 in1004.1 mb 0.00 in0.0 mm 0.00 in0.0 mm 0.18 in4.6 mm
01:40 PM 41.4°F5.2°C 35.6°F2.0°C 80% 6.3 mph N10.1 kmh N 6.3 mph10.1 kmh 29.65 in1004.1 mb 0.00 in0.0 mm 0.00 in0.0 mm 0.18 in4.6 mm
01:50 PM 41.4°F5.2°C 35.6°F2.0°C 79% 4.3 mph N6.9 kmh N 6.3 mph10.1 kmh 29.68 in1005.1 mb 0.00 in0.0 mm 0.00 in0.0 mm 0.18 in4.6 mm
02:00 PM 41.4°F5.2°C 35.6°F2.0°C 79% 4.4 mph N7.1 kmh N 7.8 mph12.6 kmh 29.68 in1005.1 mb 0.00 in0.0 mm 0.00 in0.0 mm 0.18 in4.6 mm
02:10 PM 41.4°F5.2°C 35.6°F2.0°C 79% 5.1 mph N8.2 kmh N 7.4 mph11.9 kmh 29.68 in1005.1 mb 0.00 in0.0 mm 0.00 in0.0 mm 0.18 in4.6 mm
02:20 PM 41.2°F5.1°C 35.6°F2.0°C 79% 4.7 mph N7.6 kmh N 6.3 mph10.1 kmh 29.68 in1005.1 mb 0.00 in0.0 mm 0.00 in0.0 mm 0.18 in4.6 mm
02:30 PM 41.0°F5.0°C 35.6°F2.0°C 79% 3.8 mph N6.1 kmh N 5.8 mph9.3 kmh 29.68 in1005.1 mb 0.00 in0.0 mm 0.00 in0.0 mm 0.18 in4.6 mm
02:40 PM 41.0°F5.0°C 35.6°F2.0°C 79% 3.4 mph N5.5 kmh N 3.8 mph6.1 kmh 29.68 in1005.1 mb 0.00 in0.0 mm 0.00 in0.0 mm 0.18 in4.6 mm
02:50 PM 41.0°F5.0°C 35.6°F2.0°C 79% 4.6 mph N7.4 kmh N 6.3 mph10.1 kmh 29.68 in1005.1 mb 0.00 in0.0 mm 0.00 in0.0 mm 0.18 in4.6 mm
03:00 PM 41.0°F5.0°C 35.6°F2.0°C 79% 5.3 mph N8.5 kmh N 6.3 mph10.1 kmh 29.68 in1005.1 mb 0.00 in0.0 mm 0.00 in0.0 mm 0.18 in4.6 mm
03:10 PM 41.0°F5.0°C 35.6°F2.0°C 79% 5.5 mph N8.9 kmh N 7.8 mph12.6 kmh 29.71 in1006.1 mb 0.00 in0.0 mm 0.00 in0.0 mm 0.18 in4.6 mm
03:20 PM 41.0°F5.0°C 35.6°F2.0°C 79% 5.9 mph N9.5 kmh N 8.7 mph14.0 kmh 29.71 in1006.1 mb 0.00 in0.0 mm 0.00 in0.0 mm 0.18 in4.6 mm
03:30 PM 41.0°F5.0°C 35.6°F2.0°C 79% 6.3 mph N10.1 kmh N 8.1 mph13.0 kmh 29.71 in1006.1 mb 0.00 in0.0 mm 0.00 in0.0 mm 0.18 in4.6 mm
03:40 PM 41.0°F5.0°C 35.6°F2.0°C 79% 4.9 mph N7.9 kmh N 5.8 mph9.3 kmh 29.71 in1006.1 mb 0.00 in0.0 mm 0.00 in0.0 mm 0.18 in4.6 mm
03:50 PM 41.0°F5.0°C 35.6°F2.0°C 79% 5.5 mph N8.9 kmh N 6.5 mph10.5 kmh 29.74 in1007.1 mb 0.00 in0.0 mm 0.00 in0.0 mm 0.18 in4.6 mm
04:00 PM 40.8°F4.9°C 35.6°F2.0°C 79% 2.6 mph N4.2 kmh N 4.0 mph6.4 kmh 29.74 in1007.1 mb 0.00 in0.0 mm 0.00 in0.0 mm 0.18 in4.6 mm
04:10 PM 40.5°F4.7°C 33.8°F1.0°C 79% 2.9 mph N4.7 kmh N 5.6 mph9.0 kmh 29.74 in1007.1 mb 0.00 in0.0 mm 0.00 in0.0 mm 0.18 in4.6 mm
04:20 PM 40.5°F4.7°C 33.8°F1.0°C 79% 3.2 mph N5.1 kmh N 4.5 mph7.2 kmh 29.74 in1007.1 mb 0.00 in0.0 mm 0.00 in0.0 mm 0.18 in4.6 mm
04:30 PM 40.5°F4.7°C 33.8°F1.0°C 79% 5.8 mph N9.3 kmh N 7.6 mph12.2 kmh 29.74 in1007.1 mb 0.00 in0.0 mm 0.00 in0.0 mm 0.18 in4.6 mm
04:40 PM 40.5°F4.7°C 33.8°F1.0°C 79% 5.1 mph N8.2 kmh N 6.5 mph10.5 kmh 29.74 in1007.1 mb 0.00 in0.0 mm 0.00 in0.0 mm 0.18 in4.6 mm
04:50 PM 40.5°F4.7°C 33.8°F1.0°C 79% 5.9 mph N9.5 kmh N 7.4 mph11.9 kmh 29.74 in1007.1 mb 0.00 in0.0 mm 0.00 in0.0 mm 0.18 in4.6 mm
05:00 PM 40.5°F4.7°C 33.8°F1.0°C 79% 4.7 mph N7.6 kmh N 6.0 mph9.7 kmh 29.74 in1007.1 mb 0.00 in0.0 mm 0.00 in0.0 mm 0.18 in4.6 mm
05:10 PM 40.3°F4.6°C 33.8°F1.0°C 78% 5.8 mph N9.3 kmh N 7.4 mph11.9 kmh 29.74 in1007.1 mb 0.00 in0.0 mm 0.00 in0.0 mm 0.18 in4.6 mm
05:20 PM 40.1°F4.5°C 33.8°F1.0°C 78% 6.0 mph N9.7 kmh N 7.6 mph12.2 kmh 29.74 in1007.1 mb 0.00 in0.0 mm 0.00 in0.0 mm 0.18 in4.6 mm
05:30 PM 39.7°F4.3°C 33.8°F1.0°C 78% 3.3 mph N5.3 kmh N 6.0 mph9.7 kmh 29.74 in1007.1 mb 0.00 in0.0 mm 0.00 in0.0 mm 0.18 in4.6 mm
05:40 PM 39.4°F4.1°C 33.8°F1.0°C 79% 2.1 mph N3.4 kmh N 3.6 mph5.8 kmh 29.77 in1008.1 mb 0.00 in0.0 mm 0.00 in0.0 mm 0.18 in4.6 mm
05:50 PM 39.2°F4.0°C 33.8°F1.0°C 79% 2.4 mph N3.9 kmh N 5.4 mph8.7 kmh 29.77 in1008.1 mb 0.00 in0.0 mm 0.00 in0.0 mm 0.18 in4.6 mm
06:00 PM 39.4°F4.1°C 33.8°F1.0°C 79% 3.8 mph N6.1 kmh N 5.4 mph8.7 kmh 29.77 in1008.1 mb 0.00 in0.0 mm 0.00 in0.0 mm 0.18 in4.6 mm
06:10 PM 39.2°F4.0°C 33.8°F1.0°C 79% 4.7 mph N7.6 kmh N 7.6 mph12.2 kmh 29.77 in1008.1 mb 0.00 in0.0 mm 0.00 in0.0 mm 0.18 in4.6 mm
06:20 PM 39.2°F4.0°C 33.8°F1.0°C 79% 4.4 mph N7.1 kmh N 7.6 mph12.2 kmh 29.77 in1008.1 mb 0.00 in0.0 mm 0.00 in0.0 mm 0.18 in4.6 mm
06:30 PM 38.8°F3.8°C 33.8°F1.0°C 79% 2.3 mph N3.7 kmh N 4.3 mph6.9 kmh 29.77 in1008.1 mb 0.00 in0.0 mm 0.00 in0.0 mm 0.18 in4.6 mm
06:40 PM 39.0°F3.9°C 33.8°F1.0°C 79% 4.1 mph N6.6 kmh N 5.6 mph9.0 kmh 29.77 in1008.1 mb 0.00 in0.0 mm 0.00 in0.0 mm 0.18 in4.6 mm
06:50 PM 39.0°F3.9°C 33.8°F1.0°C 79% 4.6 mph N7.4 kmh N 8.1 mph13.0 kmh 29.80 in1009.1 mb 0.00 in0.0 mm 0.00 in0.0 mm 0.18 in4.6 mm
07:00 PM 38.8°F3.8°C 33.8°F1.0°C 79% 3.0 mph N4.8 kmh N 5.4 mph8.7 kmh 29.80 in1009.1 mb 0.00 in0.0 mm 0.00 in0.0 mm 0.18 in4.6 mm
07:10 PM 38.8°F3.8°C 33.8°F1.0°C 79% 3.5 mph N5.6 kmh N 4.3 mph6.9 kmh 29.80 in1009.1 mb 0.00 in0.0 mm 0.00 in0.0 mm 0.18 in4.6 mm
07:20 PM 38.8°F3.8°C 33.8°F1.0°C 79% 3.4 mph N5.5 kmh N 6.3 mph10.1 kmh 29.80 in1009.1 mb 0.00 in0.0 mm 0.00 in0.0 mm 0.18 in4.6 mm
07:30 PM 38.7°F3.7°C 33.8°F1.0°C 79% 2.2 mph N3.5 kmh N 3.6 mph5.8 kmh 29.80 in1009.1 mb 0.00 in0.0 mm 0.00 in0.0 mm 0.18 in4.6 mm
07:40 PM 38.8°F3.8°C 33.8°F1.0°C 80% 2.8 mph N4.5 kmh N 3.8 mph6.1 kmh 29.80 in1009.1 mb 0.00 in0.0 mm 0.00 in0.0 mm 0.18 in4.6 mm
07:50 PM 39.0°F3.9°C 33.8°F1.0°C 80% 2.6 mph N4.2 kmh N 4.0 mph6.4 kmh 29.80 in1009.1 mb 0.00 in0.0 mm 0.00 in0.0 mm 0.18 in4.6 mm
08:00 PM 39.0°F3.9°C 33.8°F1.0°C 79% 4.5 mph N7.2 kmh N 6.3 mph10.1 kmh 29.80 in1009.1 mb 0.00 in0.0 mm 0.00 in0.0 mm 0.18 in4.6 mm
08:10 PM 39.4°F4.1°C 33.8°F1.0°C 79% 2.9 mph N4.7 kmh N 3.8 mph6.1 kmh 29.80 in1009.1 mb 0.00 in0.0 mm 0.00 in0.0 mm 0.18 in4.6 mm
08:20 PM 39.7°F4.3°C 33.8°F1.0°C 79% 3.9 mph N6.3 kmh N 6.5 mph10.5 kmh 29.83 in1010.2 mb 0.00 in0.0 mm 0.00 in0.0 mm 0.18 in4.6 mm
08:30 PM 39.6°F4.2°C 33.8°F1.0°C 79% 4.3 mph N6.9 kmh N 6.0 mph9.7 kmh 29.83 in1010.2 mb 0.00 in0.0 mm 0.00 in0.0 mm 0.18 in4.6 mm
08:40 PM 39.6°F4.2°C 33.8°F1.0°C 79% 5.4 mph N8.7 kmh N 6.5 mph10.5 kmh 29.83 in1010.2 mb 0.00 in0.0 mm 0.00 in0.0 mm 0.18 in4.6 mm
08:50 PM 39.7°F4.3°C 33.8°F1.0°C 79% 5.0 mph N8.0 kmh N 6.3 mph10.1 kmh 29.83 in1010.2 mb 0.00 in0.0 mm 0.00 in0.0 mm 0.18 in4.6 mm
09:00 PM 39.7°F4.3°C 33.8°F1.0°C 79% 5.3 mph N8.5 kmh N 8.7 mph14.0 kmh 29.83 in1010.2 mb 0.00 in0.0 mm 0.00 in0.0 mm 0.18 in4.6 mm
09:10 PM 39.4°F4.1°C 33.8°F1.0°C 79% 5.8 mph N9.3 kmh N 7.4 mph11.9 kmh 29.83 in1010.2 mb 0.00 in0.0 mm 0.00 in0.0 mm 0.18 in4.6 mm
09:20 PM 39.0°F3.9°C 33.8°F1.0°C 79% 5.3 mph N8.5 kmh N 6.7 mph10.8 kmh 29.83 in1010.2 mb 0.00 in0.0 mm 0.00 in0.0 mm 0.18 in4.6 mm
09:30 PM 38.8°F3.8°C 33.8°F1.0°C 79% 6.9 mph N11.1 kmh N 11.2 mph18.0 kmh 29.83 in1010.2 mb 0.00 in0.0 mm 0.00 in0.0 mm 0.18 in4.6 mm
09:40 PM 38.7°F3.7°C 33.8°F1.0°C 79% 4.3 mph N6.9 kmh N 6.3 mph10.1 kmh 29.86 in1011.2 mb 0.00 in0.0 mm 0.00 in0.0 mm 0.18 in4.6 mm
09:50 PM 38.5°F3.6°C 33.8°F1.0°C 79% 2.9 mph N4.7 kmh N 4.9 mph7.9 kmh 29.86 in1011.2 mb 0.00 in0.0 mm 0.00 in0.0 mm 0.18 in4.6 mm
10:00 PM 38.5°F3.6°C 33.8°F1.0°C 79% 4.4 mph N7.1 kmh N 6.0 mph9.7 kmh 29.86 in1011.2 mb 0.00 in0.0 mm 0.00 in0.0 mm 0.18 in4.6 mm
10:10 PM 38.5°F3.6°C 33.8°F1.0°C 79% 5.6 mph N9.0 kmh N 7.6 mph12.2 kmh 29.86 in1011.2 mb 0.00 in0.0 mm 0.00 in0.0 mm 0.18 in4.6 mm
10:20 PM 38.1°F3.4°C 33.8°F1.0°C 80% 4.7 mph N7.6 kmh N 5.6 mph9.0 kmh 29.86 in1011.2 mb 0.00 in0.0 mm 0.00 in0.0 mm 0.18 in4.6 mm
10:30 PM 37.9°F3.3°C 33.8°F1.0°C 80% 3.2 mph N5.1 kmh N 5.6 mph9.0 kmh 29.86 in1011.2 mb 0.00 in0.0 mm 0.00 in0.0 mm 0.18 in4.6 mm
10:40 PM 37.4°F3.0°C 32.0°F0.0°C 80% 3.0 mph N4.8 kmh N 6.5 mph10.5 kmh 29.86 in1011.2 mb 0.00 in0.0 mm 0.00 in0.0 mm 0.18 in4.6 mm
10:50 PM 37.2°F2.9°C 32.0°F0.0°C 80% 3.2 mph N5.1 kmh N 4.9 mph7.9 kmh 29.86 in1011.2 mb 0.00 in0.0 mm 0.00 in0.0 mm 0.18 in4.6 mm
11:00 PM 36.7°F2.6°C 32.0°F0.0°C 80% 2.4 mph N3.9 kmh N 2.7 mph4.3 kmh 29.86 in1011.2 mb 0.00 in0.0 mm 0.00 in0.0 mm 0.18 in4.6 mm
11:10 PM 36.5°F2.5°C 32.0°F0.0°C 81% 2.5 mph N4.0 kmh N 3.8 mph6.1 kmh 29.89 in1012.2 mb 0.00 in0.0 mm 0.00 in0.0 mm 0.18 in4.6 mm
11:20 PM 36.7°F2.6°C 32.0°F0.0°C 81% 3.8 mph N6.1 kmh N 6.5 mph10.5 kmh 29.89 in1012.2 mb 0.00 in0.0 mm 0.00 in0.0 mm 0.18 in4.6 mm
11:30 PM 36.1°F2.3°C 32.0°F0.0°C 80% 2.9 mph N4.7 kmh N 3.8 mph6.1 kmh 29.89 in1012.2 mb 0.00 in0.0 mm 0.00 in0.0 mm 0.18 in4.6 mm
11:40 PM 36.3°F2.4°C 32.0°F0.0°C 80% 2.5 mph N4.0 kmh N 3.8 mph6.1 kmh 29.92 in1013.2 mb 0.00 in0.0 mm 0.00 in0.0 mm 0.18 in4.6 mm
11:50 PM 36.0°F2.2°C 30.2°F-1.0°C 80% 2.3 mph N3.7 kmh N 3.6 mph5.8 kmh 29.92 in1013.2 mb 0.00 in0.0 mm 0.00 in0.0 mm 0.18 in4.6 mm